Time;durP1;ratioP1;P1;durP2;ratioP2;P2;SDS_P1;SDS_P2;PMS_P1;PMS_P2;Temp;Humidity;BMP_temperature;BMP_pressure;BME280_temperature;BME280_humidity;BME280_pressure;Samples;Min_cycle;Max_cycle;Signal;HPM_P1;HPM_P2
2023/10/12 00:01:58;;;;;;;7.17;3.17;;;16.20;99.90;;;;;;1793926;80;21086;-80
2023/10/12 00:05:00;;;;;;;7.22;2.52;;;16.20;99.90;;;;;;1793606;80;21109;-80
2023/10/12 00:07:49;;;;;;;5.50;2.67;;;16.10;99.90;;;;;;1775307;81;21134;-80
2023/10/12 00:10:42;;;;;;;5.83;3.37;;;16.10;99.90;;;;;;1725299;83;21177;-80
2023/10/12 00:13:37;;;;;;;5.50;3.10;;;16.00;99.90;;;;;;1764947;81;21132;-81
2023/10/12 00:16:26;;;;;;;5.30;2.90;;;15.80;99.90;;;;;;1764986;81;21176;-80
2023/10/12 00:19:17;;;;;;;6.78;2.95;;;15.80;99.90;;;;;;1765274;81;21207;-80
2023/10/12 00:22:11;;;;;;;6.05;3.12;;;15.80;99.90;;;;;;1765183;81;21113;-80
2023/10/12 00:25:04;;;;;;;7.47;3.00;;;15.90;99.90;;;;;;1775837;81;21617;-80
2023/10/12 00:27:55;;;;;;;8.40;3.35;;;16.00;99.90;;;;;;1726021;83;21129;-80
2023/10/12 00:30:49;;;;;;;11.00;3.55;;;16.00;99.90;;;;;;1765206;81;21205;-80
2023/10/12 00:33:41;;;;;;;7.72;3.45;;;16.00;99.90;;;;;;1775738;81;21123;-80
2023/10/12 00:36:37;;;;;;;7.22;3.60;;;16.00;99.90;;;;;;1725966;83;21211;-80
2023/10/12 00:39:29;;;;;;;10.82;3.58;;;16.10;99.90;;;;;;1765236;81;21154;-80
2023/10/12 00:42:24;;;;;;;8.63;2.95;;;16.00;99.90;;;;;;1775604;81;21167;-80
2023/10/12 00:45:19;;;;;;;7.65;3.10;;;16.10;99.90;;;;;;1728290;82;21132;-80
2023/10/12 00:48:07;;;;;;;9.80;3.50;;;16.00;99.90;;;;;;1767752;81;21222;-80
2023/10/12 00:50:59;;;;;;;6.45;3.50;;;15.90;99.90;;;;;;1767854;81;21160;-80
2023/10/12 00:53:56;;;;;;;7.37;3.20;;;15.90;99.90;;;;;;1767826;81;21206;-80
2023/10/12 00:56:51;;;;;;;8.28;3.40;;;15.80;99.90;;;;;;1767903;81;21085;-81
2023/10/12 00:59:43;;;;;;;7.22;2.92;;;15.70;99.90;;;;;;1767202;81;21148;-80
2023/10/12 01:02:39;;;;;;;6.70;3.08;;;15.70;99.90;;;;;;1767896;81;21214;-80
2023/10/12 01:05:35;;;;;;;8.38;3.15;;;15.60;99.90;;;;;;1768054;81;21212;-80
2023/10/12 01:08:23;;;;;;;5.70;3.42;;;15.40;99.90;;;;;;1768231;81;21591;-80
2023/10/12 01:11:19;;;;;;;8.90;2.98;;;15.30;99.90;;;;;;1768207;79;21620;-80
2023/10/12 01:14:11;;;;;;;8.10;3.37;;;15.30;99.90;;;;;;1768059;81;21113;-80
2023/10/12 01:17:08;;;;;;;6.62;3.08;;;15.30;99.90;;;;;;1768208;81;21136;-80
2023/10/12 01:19:56;;;;;;;10.65;3.75;;;15.10;99.90;;;;;;1768078;81;21132;-80
2023/10/12 01:22:49;;;;;;;5.33;3.20;;;14.90;99.90;;;;;;1768020;81;21088;-80
2023/10/12 01:25:48;;;;;;;8.03;3.40;;;15.00;99.90;;;;;;1768247;81;21142;-81
2023/10/12 01:28:44;;;;;;;8.53;3.10;;;15.10;99.90;;;;;;1767897;81;21108;-82
2023/10/12 01:31:36;;;;;;;6.78;3.62;;;15.10;99.90;;;;;;1768017;81;21132;-81
2023/10/12 01:34:29;;;;;;;8.48;3.40;;;15.20;99.90;;;;;;1768370;81;21132;-81
2023/10/12 01:37:22;;;;;;;8.05;4.00;;;15.20;99.90;;;;;;1768223;81;21084;-81
2023/10/12 01:40:15;;;;;;;9.43;3.42;;;15.20;99.90;;;;;;1768003;81;21128;-80
2023/10/12 01:43:12;;;;;;;8.55;3.55;;;15.20;99.90;;;;;;1767865;81;21168;-81
2023/10/12 01:46:05;;;;;;;6.75;3.30;;;15.20;99.90;;;;;;1774461;79;21115;-82
2023/10/12 01:48:54;;;;;;;9.93;3.77;;;15.30;99.90;;;;;;1775435;81;21131;-81
2023/10/12 01:51:45;;;;;;;8.53;3.47;;;15.30;99.90;;;;;;1775429;81;21088;-81
2023/10/12 01:54:42;;;;;;;7.80;3.50;;;15.30;99.90;;;;;;1775754;81;21252;-81
2023/10/12 01:57:36;;;;;;;8.28;3.72;;;15.30;99.90;;;;;;1775756;81;21186;-80
2023/10/12 02:00:27;;;;;;;8.20;3.90;;;15.30;99.90;;;;;;1775813;81;21128;-80
2023/10/12 02:03:26;;;;;;;9.20;3.35;;;15.30;99.90;;;;;;1775725;81;21117;-80
2023/10/12 02:06:19;;;;;;;5.97;3.47;;;15.30;99.90;;;;;;1775564;81;21197;-80
2023/10/12 02:09:10;;;;;;;6.70;3.60;;;15.30;99.90;;;;;;1775747;81;21080;-80
2023/10/12 02:12:10;;;;;;;6.50;3.10;;;15.30;99.90;;;;;;1775691;81;21131;-80
2023/10/12 02:14:54;;;;;;;6.28;2.87;;;15.40;99.90;;;;;;1775772;81;21088;-81
2023/10/12 02:17:49;;;;;;;6.35;3.05;;;15.20;99.90;;;;;;1775661;81;21128;-80
2023/10/12 02:20:59;;;;;;;7.25;2.72;;;15.20;99.90;;;;;;1775928;81;21143;-80
2023/10/12 02:23:53;;;;;;;4.10;3.08;;;15.20;99.90;;;;;;1775773;81;21164;-80
2023/10/12 02:26:36;;;;;;;5.78;2.95;;;15.10;99.90;;;;;;1775964;81;21740;-80
2023/10/12 02:29:29;;;;;;;6.65;3.10;;;15.00;99.90;;;;;;1775318;81;21194;-81
2023/10/12 02:32:24;;;;;;;7.35;2.87;;;14.90;99.90;;;;;;1775731;81;21134;-81
2023/10/12 02:35:19;;;;;;;6.20;3.20;;;14.80;99.90;;;;;;1775696;81;21088;-80
2023/10/12 02:38:14;;;;;;;6.75;2.83;;;14.80;99.90;;;;;;1775881;81;21567;-81
2023/10/12 02:41:03;;;;;;;6.58;3.00;;;14.70;99.90;;;;;;1775829;81;21124;-81
2023/10/12 02:44:11;;;;;;;8.13;3.35;;;14.80;99.90;;;;;;1775456;81;21179;-81
2023/10/12 02:47:05;;;;;;;8.33;3.47;;;14.70;99.90;;;;;;1776098;79;21159;-81
2023/10/12 02:50:14;;;;;;;5.85;3.20;;;14.70;99.90;;;;;;1775663;81;21176;-81
2023/10/12 02:52:54;;;;;;;5.95;3.25;;;14.70;99.90;;;;;;1775382;81;21242;-81
2023/10/12 02:55:49;;;;;;;7.72;3.35;;;14.60;99.90;;;;;;1774796;81;21548;-81
2023/10/12 02:58:44;;;;;;;6.03;2.77;;;14.50;99.90;;;;;;1775407;81;21171;-81
2023/10/12 03:01:38;;;;;;;6.97;3.50;;;14.50;99.90;;;;;;1775706;81;21211;-81
2023/10/12 03:04:29;;;;;;;5.83;3.08;;;14.50;99.90;;;;;;1775549;81;21135;-81
2023/10/12 03:07:23;;;;;;;6.53;2.98;;;14.50;99.90;;;;;;1775737;81;21111;-80
2023/10/12 03:10:24;;;;;;;8.35;3.35;;;14.40;99.90;;;;;;1775522;81;21230;-80
2023/10/12 03:13:19;;;;;;;7.85;3.40;;;14.40;99.90;;;;;;1776099;81;21135;-80
2023/10/12 03:16:05;;;;;;;7.70;3.30;;;14.40;99.90;;;;;;1775900;81;21092;-80
2023/10/12 03:19:00;;;;;;;7.53;3.47;;;14.30;99.90;;;;;;1775759;81;21131;-81
2023/10/12 03:21:54;;;;;;;6.08;3.55;;;14.30;99.90;;;;;;1775544;81;21139;-80
2023/10/12 03:24:44;;;;;;;7.70;3.60;;;14.30;99.90;;;;;;1775837;81;21154;-80
2023/10/12 03:27:37;;;;;;;5.90;3.00;;;14.20;99.90;;;;;;1775984;81;21134;-80
2023/10/12 03:30:35;;;;;;;7.08;3.35;;;14.20;99.90;;;;;;1775701;81;21193;-80
2023/10/12 03:33:29;;;;;;;6.22;3.20;;;14.20;99.90;;;;;;1775925;81;21156;-80
2023/10/12 03:36:23;;;;;;;9.23;3.45;;;14.20;99.90;;;;;;1775856;81;21627;-80
2023/10/12 03:39:25;;;;;;;9.23;3.62;;;14.20;99.90;;;;;;1775729;81;21205;-80
2023/10/12 03:42:39;;;;;;;5.75;3.45;;;14.20;99.90;;;;;;1775818;81;21552;-80
2023/10/12 03:45:14;;;;;;;7.97;3.60;;;14.10;99.90;;;;;;1775590;81;21150;-80
2023/10/12 03:48:15;;;;;;;8.48;3.70;;;14.00;99.90;;;;;;1768676;79;21530;-80
2023/10/12 03:51:17;;;;;;;6.72;3.00;;;14.10;99.90;;;;;;1768253;81;21164;-80
2023/10/12 03:53:57;;;;;;;6.70;3.25;;;14.00;99.90;;;;;;1768344;81;21159;-80
2023/10/12 03:56:49;;;;;;;5.55;3.00;;;14.10;99.90;;;;;;1767979;81;21201;-80
2023/10/12 03:59:44;;;;;;;7.28;3.05;;;14.10;99.90;;;;;;1767938;81;21174;-81
2023/10/12 04:02:45;;;;;;;4.90;3.00;;;14.10;99.90;;;;;;1768102;81;21084;-81
2023/10/12 04:05:46;;;;;;;8.80;3.25;;;14.10;99.90;;;;;;1780959;79;21261;-80
2023/10/12 04:08:51;;;;;;;9.68;3.55;;;14.10;99.90;;;;;;1819278;79;21270;-80
2023/10/12 04:15:06;;;;;;;5.70;3.15;;;14.20;99.90;;;;;;1819084;79;21160;-80
2023/10/12 04:18:07;;;;;;;6.33;3.37;;;14.30;99.90;;;;;;1785836;80;21133;-80
2023/10/12 04:20:58;;;;;;;7.53;3.30;;;14.30;99.90;;;;;;1786024;80;21150;-80
2023/10/12 04:24:27;;;;;;;8.48;3.80;;;14.30;99.90;;;;;;1785927;80;21133;-80
2023/10/12 04:27:00;;;;;;;4.87;3.50;;;14.20;99.90;;;;;;1819101;79;21188;-81
2023/10/12 04:29:39;;;;;;;7.37;3.37;;;14.20;99.90;;;;;;1819138;79;21598;-80
2023/10/12 04:32:53;;;;;;;6.75;3.90;;;14.20;99.90;;;;;;1819091;79;21092;-81
2023/10/12 04:36:09;;;;;;;8.28;3.90;;;14.20;99.90;;;;;;1785590;80;21675;-81
2023/10/12 04:38:58;;;;;;;7.40;3.58;;;14.20;99.90;;;;;;1819294;79;21106;-81
2023/10/12 04:41:56;;;;;;;7.53;3.98;;;14.30;99.90;;;;;;1785233;80;21597;-80
2023/10/12 04:44:52;;;;;;;7.03;3.70;;;14.30;99.90;;;;;;1785193;80;21193;-82
2023/10/12 04:47:45;;;;;;;7.53;3.65;;;14.40;99.90;;;;;;1818800;78;21205;-81
2023/10/12 04:50:43;;;;;;;8.13;4.00;;;14.40;99.90;;;;;;1819043;79;21139;-81
2023/10/12 04:53:53;;;;;;;9.38;4.55;;;14.40;99.90;;;;;;1819285;79;21166;-81
2023/10/12 04:56:35;;;;;;;8.83;4.05;;;14.40;99.90;;;;;;1818959;79;21134;-81
2023/10/12 04:59:27;;;;;;;9.20;4.03;;;14.40;99.90;;;;;;1818718;79;21151;-81
2023/10/12 05:02:28;;;;;;;9.70;3.77;;;14.40;99.90;;;;;;1775312;81;21581;-81
2023/10/12 05:08:31;;;;;;;10.18;4.28;;;14.30;99.90;;;;;;1818683;79;20204;-81
2023/10/12 05:11:23;;;;;;;8.78;4.25;;;14.30;99.90;;;;;;1818787;77;21087;-81
2023/10/12 05:14:15;;;;;;;8.10;4.12;;;14.30;99.90;;;;;;1774707;79;21488;-81
2023/10/12 05:17:08;;;;;;;11.88;3.80;;;14.30;99.90;;;;;;1775127;81;21187;-81
2023/10/12 05:20:01;;;;;;;8.35;3.92;;;14.30;99.90;;;;;;1819166;77;21154;-81
2023/10/12 05:22:52;;;;;;;6.90;4.00;;;14.30;99.90;;;;;;1775150;81;21137;-81
2023/10/12 05:26:07;;;;;;;9.35;4.58;;;14.20;99.90;;;;;;1775106;81;21121;-81
2023/10/12 05:32:05;;;;;;;9.90;3.67;;;14.20;99.90;;;;;;1818880;79;21162;-81
2023/10/12 05:34:57;;;;;;;6.35;3.40;;;14.10;99.90;;;;;;1774860;81;21252;-81
2023/10/12 05:37:49;;;;;;;9.53;3.17;;;14.10;99.90;;;;;;1818956;79;21631;-80
2023/10/12 05:40:43;;;;;;;9.88;3.52;;;14.10;99.90;;;;;;1774906;81;21188;-80
2023/10/12 05:43:36;;;;;;;6.17;3.02;;;14.10;99.90;;;;;;1774795;81;21133;-82
2023/10/12 05:46:32;;;;;;;6.58;2.85;;;14.10;99.90;;;;;;1818572;79;21130;-81
2023/10/12 05:49:23;;;;;;;8.73;3.20;;;14.10;99.90;;;;;;1832318;78;21138;-81
2023/10/12 05:52:21;;;;;;;6.50;3.45;;;14.10;99.90;;;;;;1794085;80;21869;-81
2023/10/12 05:55:21;;;;;;;7.58;3.02;;;14.10;99.90;;;;;;1794304;80;21500;-82
2023/10/12 05:58:11;;;;;;;10.65;3.20;;;14.20;99.90;;;;;;1794113;80;21137;-81
2023/10/12 06:01:08;;;;;;;8.45;3.58;;;14.20;99.90;;;;;;1793234;80;21649;-82
2023/10/12 06:04:05;;;;;;;5.45;3.25;;;14.20;99.90;;;;;;1835848;78;21099;-81
2023/10/12 06:06:57;;;;;;;10.18;3.30;;;14.30;99.90;;;;;;1768972;80;21207;-81
2023/10/12 06:09:52;;;;;;;8.53;3.60;;;14.30;99.90;;;;;;1737639;82;21148;-81
2023/10/12 06:12:46;;;;;;;8.28;3.58;;;14.30;99.90;;;;;;1765762;81;21203;-82
2023/10/12 06:15:40;;;;;;;7.67;3.30;;;14.30;99.90;;;;;;1765638;81;21121;-82
2023/10/12 06:18:37;;;;;;;7.67;3.95;;;14.40;99.90;;;;;;1765531;81;21404;-82
2023/10/12 06:21:29;;;;;;;11.48;3.55;;;14.40;99.90;;;;;;1765397;81;21093;-82
2023/10/12 06:24:33;;;;;;;8.30;4.17;;;14.40;99.90;;;;;;1737390;82;21140;-81
2023/10/12 06:27:23;;;;;;;9.40;4.10;;;14.50;99.90;;;;;;1765686;81;21164;-82
2023/10/12 06:30:18;;;;;;;7.33;3.55;;;14.50;99.90;;;;;;1765459;81;21133;-81
2023/10/12 06:33:14;;;;;;;12.07;4.10;;;14.50;99.90;;;;;;1765632;81;21187;-81
2023/10/12 06:36:04;;;;;;;9.30;4.05;;;14.50;99.90;;;;;;1737520;82;21264;-81
2023/10/12 06:40:07;;;;;;;10.15;4.45;;;14.50;99.90;;;;;;1765577;81;21098;-81
2023/10/12 06:41:59;;;;;;;13.08;4.50;;;14.50;99.90;;;;;;1737433;82;21200;-81
2023/10/12 06:44:50;;;;;;;10.50;3.95;;;14.50;99.90;;;;;;1769986;81;21199;-81
2023/10/12 06:47:42;;;;;;;12.73;3.95;;;14.50;99.90;;;;;;1803344;79;21216;-81
2023/10/12 06:50:35;;;;;;;10.28;3.62;;;14.50;99.90;;;;;;1794086;80;21153;-81
2023/10/12 06:53:26;;;;;;;9.25;3.67;;;14.50;99.90;;;;;;1804465;79;21095;-80
2023/10/12 06:56:25;;;;;;;7.65;3.62;;;14.60;99.90;;;;;;1763743;81;21162;-80
2023/10/12 06:59:27;;;;;;;7.03;3.45;;;14.70;99.90;;;;;;1763631;81;21105;-81
2023/10/12 07:02:20;;;;;;;18.57;4.28;;;14.60;99.90;;;;;;1764011;81;21146;-81
2023/10/12 07:05:09;;;;;;;13.85;4.17;;;14.70;99.90;;;;;;1763113;81;21157;-81
2023/10/12 07:08:02;;;;;;;11.60;4.00;;;14.70;99.90;;;;;;1804362;79;21127;-81
2023/10/12 07:11:00;;;;;;;15.20;3.85;;;14.80;99.90;;;;;;1804210;79;21130;-81
2023/10/12 07:13:51;;;;;;;11.10;4.10;;;14.90;99.90;;;;;;1803921;79;21130;-81
2023/10/12 07:16:54;;;;;;;12.25;4.10;;;15.00;99.90;;;;;;1804377;79;21374;-81
2023/10/12 07:22:18;;;;;;;9.48;3.80;;;15.30;99.90;;;;;;1957267;72;22223;-83
2023/10/12 07:25:10;;;;;;;8.13;4.15;;;15.40;99.90;;;;;;1916604;75;21582;-81
2023/10/12 07:28:01;;;;;;;10.85;5.80;;;15.50;99.90;;;;;;1916906;75;21098;-81
2023/10/12 07:34:19;;;;;;;11.38;4.80;;;15.60;99.90;;;;;;1856707;74;21491;-81
2023/10/12 07:37:13;;;;;;;11.60;4.60;;;15.70;99.90;;;;;;1916918;75;21103;-81
2023/10/12 07:40:18;;;;;;;6.50;4.03;;;15.80;99.90;;;;;;1916640;75;21068;-81
2023/10/12 07:43:08;;;;;;;11.53;3.83;;;15.80;99.90;;;;;;1916610;75;21155;-81
2023/10/12 07:46:13;;;;;;;8.88;3.92;;;15.90;99.90;;;;;;1897312;75;21125;-82
2023/10/12 07:49:21;;;;;;;8.30;3.77;;;16.00;99.90;;;;;;1916846;75;21090;-81
2023/10/12 07:52:05;;;;;;;7.03;3.58;;;16.10;99.90;;;;;;1916991;75;21099;-81
2023/10/12 07:54:58;;;;;;;7.65;3.58;;;16.20;99.90;;;;;;1917029;75;21091;-81
2023/10/12 07:57:50;;;;;;;12.28;3.60;;;16.20;99.90;;;;;;1916610;75;21087;-80
2023/10/12 08:00:51;;;;;;;8.20;3.87;;;16.30;99.90;;;;;;1916700;75;21099;-80
2023/10/12 08:03:41;;;;;;;7.87;3.67;;;16.40;99.90;;;;;;1916996;75;21204;-80
2023/10/12 08:06:31;;;;;;;11.15;4.20;;;16.40;99.90;;;;;;1916893;75;21105;-81
2023/10/12 08:09:34;;;;;;;9.23;3.55;;;16.50;99.90;;;;;;1916888;75;21554;-80
2023/10/12 08:12:25;;;;;;;8.88;4.15;;;16.60;99.90;;;;;;1916907;75;21227;-80
2023/10/12 08:15:16;;;;;;;10.53;4.37;;;16.60;99.90;;;;;;1916474;75;21055;-80
2023/10/12 08:18:50;;;;;;;9.35;4.17;;;16.70;99.90;;;;;;1916510;75;21644;-80
2023/10/12 08:21:02;;;;;;;12.05;4.58;;;16.70;99.90;;;;;;1916404;74;21450;-80
2023/10/12 08:23:58;;;;;;;10.28;4.37;;;16.80;99.90;;;;;;1916564;75;21110;-81
2023/10/12 08:26:57;;;;;;;9.00;3.67;;;16.80;99.90;;;;;;1916683;75;21195;-80
2023/10/12 08:30:13;;;;;;;9.58;3.50;;;16.80;99.90;;;;;;1904525;75;21149;-80
2023/10/12 08:33:14;;;;;;;10.68;3.85;;;16.80;99.90;;;;;;1916470;75;21324;-80
2023/10/12 08:36:23;;;;;;;18.48;11.50;;;16.90;99.90;;;;;;1903688;75;21134;-80
2023/10/12 08:39:15;;;;;;;10.13;4.45;;;16.90;99.90;;;;;;1903458;75;21160;-81
2023/10/12 08:42:29;;;;;;;11.08;4.10;;;16.90;99.90;;;;;;1915779;75;21184;-81
2023/10/12 08:45:08;;;;;;;7.55;3.85;;;17.00;99.90;;;;;;1903592;75;21542;-80
2023/10/12 08:48:03;;;;;;;10.55;3.50;;;17.00;99.90;;;;;;1903905;75;21168;-81
2023/10/12 08:51:06;;;;;;;9.25;3.15;;;17.10;99.90;;;;;;1903729;75;21095;-81
2023/10/12 08:53:57;;;;;;;7.85;3.67;;;17.10;99.90;;;;;;1904003;75;21064;-80
2023/10/12 08:56:53;;;;;;;6.42;3.40;;;17.20;99.90;;;;;;1903806;75;21168;-81
2023/10/12 08:59:47;;;;;;;9.15;3.45;;;17.30;99.90;;;;;;1915687;75;21178;-80
2023/10/12 09:02:39;;;;;;;8.98;3.33;;;17.40;99.90;;;;;;1915691;75;21122;-80
2023/10/12 09:05:32;;;;;;;7.60;3.12;;;17.50;99.90;;;;;;1903553;75;21098;-80
2023/10/12 09:11:44;;;;;;;6.25;3.08;;;17.70;99.90;;;;;;1903693;75;21184;-80
2023/10/12 09:14:36;;;;;;;7.30;3.27;;;17.80;99.90;;;;;;1903765;75;21044;-80
2023/10/12 09:17:32;;;;;;;6.37;3.10;;;17.90;99.90;;;;;;1903627;75;21586;-81
2023/10/12 09:20:28;;;;;;;8.28;2.80;;;17.90;99.90;;;;;;1903846;75;21213;-81
2023/10/12 09:23:21;;;;;;;6.30;3.30;;;18.00;99.90;;;;;;1919346;74;21602;-81
2023/10/12 09:26:15;;;;;;;9.45;3.47;;;18.10;99.90;;;;;;1925643;74;21591;-81
2023/10/12 09:29:20;;;;;;;7.30;3.02;;;18.10;99.90;;;;;;1925359;74;21118;-81
2023/10/12 09:32:19;;;;;;;6.53;3.10;;;18.30;99.90;;;;;;1925829;74;21216;-80
2023/10/12 09:35:14;;;;;;;8.23;3.20;;;18.40;99.90;;;;;;1925310;74;21082;-82
2023/10/12 09:38:06;;;;;;;9.08;3.50;;;18.50;99.90;;;;;;1925328;74;21124;-81
2023/10/12 09:41:14;;;;;;;7.12;3.80;;;18.60;99.90;;;;;;1925299;74;21078;-81
2023/10/12 09:44:11;;;;;;;9.93;3.92;;;18.70;99.90;;;;;;1925214;74;21515;-81
2023/10/12 09:47:09;;;;;;;8.35;3.72;;;18.80;99.90;;;;;;1925329;74;21102;-81
2023/10/12 09:50:13;;;;;;;10.25;3.22;;;18.90;99.90;;;;;;1925579;74;21086;-80
2023/10/12 09:53:12;;;;;;;9.40;3.22;;;19.00;99.90;;;;;;1925768;74;21099;-80
2023/10/12 09:56:10;;;;;;;6.60;3.60;;;19.00;99.90;;;;;;1925784;74;21150;-81
2023/10/12 09:59:07;;;;;;;11.80;4.00;;;19.10;99.90;;;;;;1925406;74;21609;-81
2023/10/12 10:02:02;;;;;;;5.40;2.87;;;19.20;99.90;;;;;;1909971;74;21074;-81
2023/10/12 10:05:01;;;;;;;9.90;3.47;;;19.30;99.90;;;;;;1925457;74;21129;-80
2023/10/12 10:07:53;;;;;;;6.65;3.12;;;19.40;99.90;;;;;;1925106;74;21172;-80
2023/10/12 10:10:57;;;;;;;8.30;2.98;;;19.40;99.90;;;;;;1925316;74;21082;-81
2023/10/12 10:13:46;;;;;;;7.03;3.00;;;19.50;99.90;;;;;;1925564;74;21172;-80
2023/10/12 10:16:47;;;;;;;7.90;3.35;;;19.50;99.90;;;;;;1908666;74;21098;-80
2023/10/12 10:19:51;;;;;;;5.83;3.25;;;19.60;99.90;;;;;;1925165;74;21083;-80
2023/10/12 10:22:39;;;;;;;7.00;3.15;;;19.70;99.90;;;;;;1925248;74;21176;-80
2023/10/12 10:25:34;;;;;;;6.67;2.90;;;19.70;99.90;;;;;;1925041;74;21098;-80
2023/10/12 10:28:32;;;;;;;7.47;2.80;;;19.80;99.90;;;;;;1925565;74;21094;-80
2023/10/12 10:31:35;;;;;;;8.10;3.20;;;19.90;99.90;;;;;;1925604;74;21139;-80
2023/10/12 10:34:34;;;;;;;6.60;3.10;;;20.00;99.90;;;;;;1908687;74;21051;-81
2023/10/12 10:37:57;;;;;;;6.50;3.42;;;20.00;99.90;;;;;;1925744;74;21143;-80
2023/10/12 10:40:48;;;;;;;7.53;3.52;;;20.00;99.90;;;;;;1925545;74;21185;-80
2023/10/12 10:43:43;;;;;;;12.65;3.37;;;20.20;99.90;;;;;;1908900;74;21159;-80
2023/10/12 10:46:40;;;;;;;7.25;3.25;;;20.30;99.90;;;;;;1925785;74;21557;-80
2023/10/12 10:49:35;;;;;;;8.10;3.47;;;20.40;99.90;;;;;;1925740;74;21047;-80
2023/10/12 10:52:32;;;;;;;8.08;3.27;;;20.50;99.90;;;;;;1925858;74;21109;-80
2023/10/12 10:55:25;;;;;;;7.50;3.15;;;20.60;99.90;;;;;;1925769;74;21142;-80
2023/10/12 10:58:22;;;;;;;8.35;2.37;;;20.60;99.90;;;;;;1925758;74;21126;-80
2023/10/12 11:01:20;;;;;;;5.40;2.45;;;20.70;99.90;;;;;;1925782;74;21135;-81
2023/10/12 11:04:17;;;;;;;9.35;2.77;;;20.80;99.90;;;;;;1925751;74;21171;-81
2023/10/12 11:07:11;;;;;;;4.78;2.47;;;20.90;99.90;;;;;;1895630;74;21155;-80
2023/10/12 11:10:31;;;;;;;8.00;2.60;;;21.00;99.90;;;;;;1893247;76;21084;-81
2023/10/12 11:13:18;;;;;;;6.80;2.60;;;21.10;99.90;;;;;;1892944;76;21234;-80
2023/10/12 11:16:28;;;;;;;6.30;2.80;;;21.10;99.90;;;;;;1893109;76;21100;-80
2023/10/12 11:19:23;;;;;;;6.83;2.20;;;21.20;99.90;;;;;;1892702;76;21215;-80
2023/10/12 11:22:17;;;;;;;6.05;2.45;;;21.40;99.90;;;;;;1892578;76;21259;-80
2023/10/12 11:25:20;;;;;;;4.67;2.30;;;21.50;99.90;;;;;;1892451;76;21133;-80
2023/10/12 11:28:34;;;;;;;9.45;2.37;;;21.70;99.90;;;;;;1892399;76;21572;-80
2023/10/12 11:31:32;;;;;;;8.38;2.30;;;21.70;99.90;;;;;;1892324;76;21215;-81
2023/10/12 11:34:24;;;;;;;7.42;2.40;;;21.80;99.90;;;;;;1892498;76;21310;-80
2023/10/12 11:37:16;;;;;;;5.33;2.60;;;21.80;99.90;;;;;;1892582;76;21163;-80
2023/10/12 11:43:13;;;;;;;7.40;2.70;;;22.00;99.90;;;;;;1975338;72;22247;-79
2023/10/12 11:46:04;;;;;;;6.12;2.10;;;22.10;99.90;;;;;;1950685;73;21086;-80
2023/10/12 11:49:08;;;;;;;6.45;2.35;;;22.20;99.90;;;;;;1950514;73;21158;-80
2023/10/12 11:52:14;;;;;;;6.28;2.30;;;22.30;99.90;;;;;;1950577;73;21399;-80
2023/10/12 11:54:54;;;;;;;4.62;2.40;;;22.50;99.90;;;;;;1950672;73;21282;-80
2023/10/12 11:57:48;;;;;;;7.25;1.92;;;22.60;99.90;;;;;;1950377;73;21155;-80
2023/10/12 12:00:44;;;;;;;7.90;2.45;;;22.70;99.90;;;;;;1950626;73;21117;-80
2023/10/12 12:03:39;;;;;;;5.85;2.58;;;22.80;99.90;;;;;;1950380;73;21133;-79
2023/10/12 12:06:26;;;;;;;6.30;2.47;;;23.00;99.90;;;;;;1950487;73;21220;-80
2023/10/12 12:09:18;;;;;;;7.30;2.47;;;23.00;99.90;;;;;;1950012;73;21535;-81
2023/10/12 12:12:12;;;;;;;8.80;2.50;;;23.10;99.90;;;;;;1949792;73;21107;-80
2023/10/12 12:15:04;;;;;;;10.35;2.87;;;23.10;99.90;;;;;;1950346;73;21184;-79
2023/10/12 12:17:55;;;;;;;10.03;2.95;;;23.10;99.90;;;;;;1950417;73;21099;-80
2023/10/12 12:20:47;;;;;;;12.00;3.50;;;23.20;99.90;;;;;;1950020;73;21155;-80
2023/10/12 12:23:40;;;;;;;8.65;3.00;;;23.30;99.90;;;;;;1950002;73;21191;-80
2023/10/12 12:26:34;;;;;;;6.97;3.20;;;23.30;99.90;;;;;;1950218;73;21098;-80
2023/10/12 12:29:26;;;;;;;7.42;3.35;;;23.20;99.90;;;;;;1950318;73;21134;-80
2023/10/12 12:32:19;;;;;;;9.33;3.10;;;23.20;99.90;;;;;;1950203;73;21179;-80
2023/10/12 12:35:15;;;;;;;8.18;3.33;;;23.30;99.90;;;;;;1949950;73;21160;-80
2023/10/12 12:38:18;;;;;;;10.72;3.40;;;23.40;99.90;;;;;;1949623;73;21671;-80
2023/10/12 12:41:05;;;;;;;7.53;3.30;;;23.50;99.90;;;;;;1950076;73;21165;-80
2023/10/12 12:43:58;;;;;;;7.50;3.50;;;23.50;99.90;;;;;;1950040;73;21122;-80
2023/10/12 12:46:48;;;;;;;11.28;3.10;;;23.40;99.90;;;;;;1937449;74;21127;-80
2023/10/12 12:49:41;;;;;;;8.53;3.40;;;23.50;99.90;;;;;;1950481;73;21155;-79
2023/10/12 12:52:33;;;;;;;6.55;3.02;;;23.60;99.90;;;;;;1950347;73;21094;-80
2023/10/12 12:55:27;;;;;;;9.70;3.40;;;23.60;99.90;;;;;;1949827;73;21094;-80
2023/10/12 12:58:18;;;;;;;8.10;3.65;;;23.60;99.90;;;;;;1949586;73;21040;-80
2023/10/12 13:01:11;;;;;;;7.95;3.80;;;23.70;99.90;;;;;;1950121;73;21110;-80
2023/10/12 13:04:03;;;;;;;10.05;3.92;;;23.70;99.90;;;;;;1937050;74;21164;-80
2023/10/12 13:06:54;;;;;;;9.73;3.67;;;23.70;99.90;;;;;;1949876;73;21094;-79
2023/10/12 13:09:48;;;;;;;6.12;3.75;;;23.80;99.90;;;;;;1937028;74;21134;-80
2023/10/12 13:12:41;;;;;;;8.83;4.30;;;23.90;99.90;;;;;;1937107;74;21534;-80
2023/10/12 13:15:41;;;;;;;6.90;3.60;;;24.10;99.90;;;;;;1937078;74;21187;-80
2023/10/12 13:18:29;;;;;;;8.13;3.60;;;24.20;99.90;;;;;;1949765;73;21058;-80
2023/10/12 13:21:22;;;;;;;5.42;3.50;;;24.30;99.90;;;;;;1936947;74;21131;-80
2023/10/12 13:24:13;;;;;;;8.10;3.25;;;24.30;99.90;;;;;;1949789;73;21134;-80
2023/10/12 13:27:08;;;;;;;8.00;3.30;;;24.40;99.90;;;;;;1937131;74;21095;-80
2023/10/12 13:30:09;;;;;;;9.33;3.52;;;24.50;99.90;;;;;;1950086;73;21167;-80
2023/10/12 13:32:59;;;;;;;7.25;3.40;;;24.60;99.90;;;;;;1950002;73;21204;-80
2023/10/12 13:35:47;;;;;;;8.23;3.35;;;24.70;99.90;;;;;;1936519;74;21102;-80
2023/10/12 13:38:41;;;;;;;5.80;2.58;;;24.80;99.90;;;;;;1949494;73;21098;-80
2023/10/12 13:41:33;;;;;;;8.83;3.92;;;24.90;99.90;;;;;;1937211;74;21107;-80
2023/10/12 13:44:25;;;;;;;7.78;3.47;;;25.00;99.90;;;;;;1950017;73;21133;-80
2023/10/12 13:47:17;;;;;;;9.30;3.58;;;25.00;99.90;;;;;;1949918;73;21063;-80
2023/10/12 13:50:10;;;;;;;11.03;4.47;;;25.10;99.90;;;;;;1949798;73;21148;-80
2023/10/12 13:53:02;;;;;;;7.47;4.28;;;25.10;99.90;;;;;;1949775;73;21164;-80
2023/10/12 13:55:54;;;;;;;6.60;3.92;;;25.20;99.90;;;;;;1949696;73;21157;-80
2023/10/12 13:58:46;;;;;;;6.25;4.22;;;25.20;99.90;;;;;;1949653;73;21187;-81
2023/10/12 14:01:37;;;;;;;8.40;4.28;;;25.30;99.90;;;;;;1949525;73;21055;-80
2023/10/12 14:04:29;;;;;;;8.73;4.25;;;25.30;99.90;;;;;;1949694;73;21193;-80
2023/10/12 14:07:22;;;;;;;9.23;3.87;;;25.30;99.90;;;;;;1949919;73;21130;-80
2023/10/12 14:10:14;;;;;;;6.15;4.10;;;25.40;99.90;;;;;;1949880;73;21164;-80
2023/10/12 14:13:07;;;;;;;6.33;3.90;;;25.40;99.90;;;;;;1949793;73;21447;-80
2023/10/12 14:15:58;;;;;;;8.65;4.10;;;25.90;99.90;;;;;;1949649;73;21125;-80
2023/10/12 14:18:50;;;;;;;6.58;4.15;;;27.00;99.90;;;;;;1949893;73;21622;-80
2023/10/12 14:21:42;;;;;;;6.15;4.10;;;27.60;99.90;;;;;;1949778;73;21318;-80
2023/10/12 14:24:33;;;;;;;7.10;4.03;;;28.00;99.90;;;;;;1949598;73;21621;-80
2023/10/12 14:27:25;;;;;;;7.90;4.22;;;28.30;99.90;;;;;;1949781;73;21196;-80
2023/10/12 14:30:16;;;;;;;9.08;4.22;;;28.60;99.90;;;;;;1949773;73;21078;-81
2023/10/12 14:33:09;;;;;;;7.15;3.92;;;28.30;99.90;;;;;;1949385;73;21133;-81
2023/10/12 14:36:01;;;;;;;7.72;3.55;;;27.50;99.90;;;;;;1949461;73;21115;-80
2023/10/12 14:38:55;;;;;;;5.25;3.45;;;26.70;99.90;;;;;;1949334;73;21063;-80
2023/10/12 14:41:48;;;;;;;9.08;3.65;;;26.40;99.90;;;;;;1949877;73;21502;-80
2023/10/12 14:44:39;;;;;;;6.35;3.65;;;26.20;99.90;;;;;;1943166;73;21154;-80
2023/10/12 14:47:35;;;;;;;4.55;3.30;;;26.00;99.90;;;;;;1934854;74;21169;-80
2023/10/12 14:50:24;;;;;;;7.70;4.25;;;25.70;99.90;;;;;;1934696;74;21151;-80
2023/10/12 14:53:16;;;;;;;6.35;3.83;;;25.70;99.90;;;;;;1934739;74;21575;-80
2023/10/12 14:56:10;;;;;;;7.45;4.10;;;25.70;99.90;;;;;;1934755;74;21063;-80
2023/10/12 14:59:01;;;;;;;5.42;3.65;;;25.70;99.90;;;;;;1934860;74;21091;-81
2023/10/12 15:01:52;;;;;;;5.15;3.72;;;25.70;99.90;;;;;;1934723;74;21176;-81
2023/10/12 15:04:44;;;;;;;6.72;4.10;;;25.80;99.90;;;;;;1934971;74;21095;-81
2023/10/12 15:07:40;;;;;;;7.22;3.62;;;25.80;99.90;;;;;;1934912;74;21311;-80
2023/10/12 15:10:36;;;;;;;6.35;3.70;;;25.70;99.90;;;;;;1934741;74;21205;-80
2023/10/12 15:13:29;;;;;;;6.75;3.40;;;25.70;99.90;;;;;;1935010;74;21087;-80
2023/10/12 15:16:23;;;;;;;6.05;3.35;;;25.70;99.90;;;;;;1934872;74;21566;-80
2023/10/12 15:19:15;;;;;;;3.92;3.22;;;25.70;99.90;;;;;;1934943;74;21228;-80
2023/10/12 15:22:06;;;;;;;3.70;3.20;;;25.90;99.90;;;;;;1934410;74;21132;-80
2023/10/12 15:25:00;;;;;;;8.88;3.90;;;26.30;99.90;;;;;;1934516;74;21161;-80
2023/10/12 15:27:54;;;;;;;7.65;3.80;;;26.50;99.90;;;;;;1934477;74;21051;-80
2023/10/12 15:30:46;;;;;;;8.43;3.75;;;27.00;99.90;;;;;;1935021;74;21571;-80